Time;durP1;ratioP1;P1;durP2;ratioP2;P2;SDS_P1;SDS_P2;PMS_P1;PMS_P2;Temp;Humidity;BMP_temperature;BMP_pressure;BME280_temperature;BME280_humidity;BME280_pressure;Samples;Min_cycle;Max_cycle;Signal;HPM_P1;HPM_P2
2020/12/18 00:01:25;;;;;;;14.07;10.67;;;8.10;82.60;;;;;;5034853;28;20040;-71
2020/12/18 00:03:52;;;;;;;13.40;9.37;;;8.10;82.40;;;;;;5034620;28;20026;-70
2020/12/18 00:06:18;;;;;;;14.10;9.47;;;8.10;82.60;;;;;;5034625;28;20029;-69
2020/12/18 00:08:44;;;;;;;13.43;9.60;;;8.10;82.70;;;;;;5034607;28;20025;-71
2020/12/18 00:11:09;;;;;;;27.87;20.03;;;8.10;83.10;;;;;;5034494;28;20375;-74
2020/12/18 00:13:35;;;;;;;37.60;27.83;;;8.10;82.50;;;;;;5034206;28;20036;-71
2020/12/18 00:16:01;;;;;;;51.80;36.30;;;8.10;82.60;;;;;;5034155;28;20033;-72
2020/12/18 00:18:27;;;;;;;58.03;42.53;;;8.10;83.10;;;;;;5034401;28;20128;-68
2020/12/18 00:20:53;;;;;;;65.23;46.17;;;8.10;83.50;;;;;;5034249;28;20034;-70
2020/12/18 00:23:18;;;;;;;60.83;46.43;;;8.00;84.00;;;;;;5034320;28;20116;-71
2020/12/18 00:25:49;;;;;;;61.03;46.97;;;8.00;85.30;;;;;;5034232;28;20438;-75
2020/12/18 00:28:16;;;;;;;61.77;46.87;;;8.00;85.50;;;;;;5033867;28;20387;-70
2020/12/18 00:30:41;;;;;;;64.20;48.00;;;8.00;85.70;;;;;;5034232;28;20029;-66
2020/12/18 00:33:07;;;;;;;66.67;50.70;;;8.00;86.10;;;;;;5034292;28;20029;-63
2020/12/18 00:35:33;;;;;;;66.83;49.77;;;7.90;86.10;;;;;;5033896;28;20091;-71
2020/12/18 00:37:59;;;;;;;61.40;47.67;;;8.00;86.80;;;;;;5033839;28;20418;-62
2020/12/18 00:40:25;;;;;;;62.80;48.80;;;7.90;86.80;;;;;;5033965;28;20029;-67
2020/12/18 00:42:51;;;;;;;66.17;48.43;;;7.90;86.90;;;;;;5033699;28;20108;-68
2020/12/18 00:45:17;;;;;;;65.53;46.80;;;7.90;86.90;;;;;;5034002;28;20083;-65
2020/12/18 00:47:42;;;;;;;65.10;47.50;;;8.00;87.00;;;;;;5033722;28;20034;-63
2020/12/18 00:50:08;;;;;;;61.80;46.90;;;7.90;87.10;;;;;;5033563;28;20026;-68
2020/12/18 00:52:33;;;;;;;64.87;49.17;;;7.90;87.10;;;;;;5033773;28;20022;-70
2020/12/18 00:54:59;;;;;;;68.90;49.43;;;7.90;87.30;;;;;;5033531;28;20125;-69
2020/12/18 00:57:25;;;;;;;62.20;46.40;;;7.90;87.40;;;;;;5033684;28;20104;-67
2020/12/18 00:59:51;;;;;;;66.20;48.33;;;7.90;87.40;;;;;;5033048;28;20091;-68
2020/12/18 01:02:17;;;;;;;64.57;49.10;;;7.90;87.50;;;;;;5033536;28;20470;-66
2020/12/18 01:04:42;;;;;;;63.87;49.33;;;7.90;87.60;;;;;;5033473;28;20079;-68
2020/12/18 01:07:08;;;;;;;67.57;51.03;;;7.90;87.70;;;;;;5033486;28;20017;-68
2020/12/18 01:09:34;;;;;;;66.33;47.23;;;7.90;87.70;;;;;;5033473;28;20030;-66
2020/12/18 01:12:00;;;;;;;64.93;48.13;;;7.90;87.70;;;;;;5033420;28;20025;-67
2020/12/18 01:14:25;;;;;;;66.13;48.37;;;7.80;87.70;;;;;;5033218;28;20394;-69
2020/12/18 01:16:53;;;;;;;65.87;50.57;;;7.80;87.80;;;;;;5033153;28;20029;-71
2020/12/18 01:19:19;;;;;;;68.50;51.80;;;7.80;88.00;;;;;;5033306;28;20374;-67
2020/12/18 01:21:46;;;;;;;66.03;50.60;;;7.80;88.10;;;;;;5033399;28;20079;-71
2020/12/18 01:24:12;;;;;;;67.03;50.07;;;7.80;88.20;;;;;;5033083;28;20032;-73
2020/12/18 01:26:38;;;;;;;66.20;50.80;;;7.80;88.20;;;;;;5033202;28;20482;-72
2020/12/18 01:29:04;;;;;;;69.73;51.30;;;7.80;88.20;;;;;;5033220;28;20021;-70
2020/12/18 01:31:31;;;;;;;67.47;51.77;;;7.80;88.20;;;;;;5033196;28;20021;-70
2020/12/18 01:33:57;;;;;;;65.27;48.00;;;7.80;88.30;;;;;;5032859;28;20029;-70
2020/12/18 01:36:23;;;;;;;61.20;46.90;;;7.80;88.30;;;;;;5033063;28;20026;-68
2020/12/18 01:38:49;;;;;;;62.10;44.67;;;7.80;88.40;;;;;;5033000;28;20029;-65
2020/12/18 01:41:15;;;;;;;59.27;42.63;;;7.80;88.30;;;;;;5033358;28;20517;-67
2020/12/18 01:43:41;;;;;;;46.80;34.70;;;7.80;88.10;;;;;;5033245;28;20108;-68
2020/12/18 01:46:10;;;;;;;40.50;30.57;;;7.80;88.00;;;;;;5032871;28;20031;-62
2020/12/18 01:48:40;;;;;;;27.00;19.83;;;7.80;87.50;;;;;;5033254;28;20017;-63
2020/12/18 01:51:08;;;;;;;11.90;8.60;;;7.80;87.10;;;;;;5033176;28;20105;-69
2020/12/18 01:53:34;;;;;;;9.33;7.50;;;7.80;85.70;;;;;;5032947;28;20478;-74
2020/12/18 01:56:01;;;;;;;13.20;6.97;;;7.80;84.50;;;;;;5032986;28;20029;-73
2020/12/18 01:58:31;;;;;;;9.07;6.87;;;7.80;84.60;;;;;;5031313;28;20032;-74
2020/12/18 02:01:04;;;;;;;9.73;6.87;;;7.80;83.60;;;;;;5030187;28;20026;-73
2020/12/18 02:03:29;;;;;;;8.88;6.68;;;7.80;83.40;;;;;;5030589;28;20030;-64
2020/12/18 02:05:58;;;;;;;9.53;7.03;;;7.90;84.20;;;;;;5032320;28;20141;-63
2020/12/18 02:08:26;;;;;;;7.20;6.37;;;7.90;83.30;;;;;;5032645;28;20045;-70
2020/12/18 02:10:54;;;;;;;12.17;7.43;;;7.90;83.10;;;;;;5035381;28;20159;-70
2020/12/18 02:13:21;;;;;;;15.77;11.03;;;7.90;83.00;;;;;;5036285;28;20051;-73
2020/12/18 02:15:49;;;;;;;24.97;18.07;;;7.90;83.00;;;;;;5036296;28;20034;-68
2020/12/18 02:18:15;;;;;;;39.07;30.10;;;7.90;83.10;;;;;;5036187;28;20122;-71
2020/12/18 02:20:41;;;;;;;42.80;31.40;;;7.90;83.40;;;;;;5036038;28;20049;-69
2020/12/18 02:23:07;;;;;;;45.70;36.20;;;7.90;84.00;;;;;;5034859;28;20021;-69
2020/12/18 02:25:37;;;;;;;51.77;37.80;;;7.90;84.20;;;;;;5036067;28;20120;-72
2020/12/18 02:28:03;;;;;;;52.57;41.00;;;7.80;84.50;;;;;;5035925;28;20552;-71
2020/12/18 02:30:28;;;;;;;58.53;45.33;;;7.80;84.80;;;;;;5036302;28;20029;-73
2020/12/18 02:32:54;;;;;;;56.63;44.23;;;7.80;85.10;;;;;;5036225;28;20030;-74
2020/12/18 02:35:20;;;;;;;59.63;46.07;;;7.70;85.40;;;;;;5035834;28;20025;-73
2020/12/18 02:37:45;;;;;;;57.90;44.03;;;7.70;85.70;;;;;;5036233;28;20075;-67
2020/12/18 02:40:11;;;;;;;56.03;42.67;;;7.60;86.00;;;;;;5036439;28;20036;-67
2020/12/18 02:42:37;;;;;;;52.97;41.07;;;7.60;86.20;;;;;;5035646;28;20477;-67
2020/12/18 02:45:03;;;;;;;54.47;44.43;;;7.60;86.30;;;;;;5036202;28;20029;-67
2020/12/18 02:47:30;;;;;;;57.13;43.87;;;7.60;86.50;;;;;;5035832;28;20017;-70
2020/12/18 02:49:55;;;;;;;58.07;45.93;;;7.60;86.50;;;;;;5035562;28;20037;-65
2020/12/18 02:52:22;;;;;;;63.40;46.87;;;7.50;86.60;;;;;;5035554;28;20021;-64
2020/12/18 02:54:47;;;;;;;59.63;45.90;;;7.50;87.10;;;;;;5035525;28;20038;-64
2020/12/18 02:57:13;;;;;;;55.50;44.40;;;7.50;87.40;;;;;;5035755;28;20017;-63
2020/12/18 02:59:39;;;;;;;56.40;45.10;;;7.50;87.50;;;;;;5035671;28;20529;-72
2020/12/18 03:02:04;;;;;;;63.50;44.27;;;7.40;87.60;;;;;;5035537;28;20041;-71
2020/12/18 03:04:30;;;;;;;56.80;43.27;;;7.40;87.80;;;;;;5035602;28;20025;-72
2020/12/18 03:06:56;;;;;;;55.67;44.20;;;7.40;87.80;;;;;;5035391;28;20355;-65
2020/12/18 03:09:22;;;;;;;54.27;42.80;;;7.40;87.70;;;;;;5035426;28;20048;-71
2020/12/18 03:11:48;;;;;;;62.80;46.17;;;7.40;87.90;;;;;;5035553;28;20382;-73
2020/12/18 03:14:14;;;;;;;55.47;43.57;;;7.40;87.90;;;;;;5035340;28;20030;-67
2020/12/18 03:16:39;;;;;;;57.63;45.57;;;7.40;88.00;;;;;;5035356;28;20021;-66
2020/12/18 03:19:05;;;;;;;56.90;46.23;;;7.40;88.10;;;;;;5035142;28;20050;-63
2020/12/18 03:21:31;;;;;;;60.50;47.50;;;7.40;88.30;;;;;;5034725;28;20021;-73
2020/12/18 03:23:57;;;;;;;63.13;46.37;;;7.40;88.50;;;;;;5035372;28;20493;-71
2020/12/18 03:26:23;;;;;;;61.67;47.37;;;7.40;88.60;;;;;;5035281;28;20032;-72
2020/12/18 03:28:48;;;;;;;64.47;48.13;;;7.40;88.50;;;;;;5035220;28;20021;-69
2020/12/18 03:31:14;;;;;;;59.93;47.10;;;7.40;89.20;;;;;;5034931;28;20029;-70
2020/12/18 03:33:40;;;;;;;60.50;46.27;;;7.50;88.70;;;;;;5035018;28;20040;-72
2020/12/18 03:36:06;;;;;;;59.53;46.63;;;7.50;88.70;;;;;;5034955;28;20075;-70
2020/12/18 03:38:31;;;;;;;58.83;46.00;;;7.50;88.80;;;;;;5034988;28;20036;-69
2020/12/18 03:40:57;;;;;;;57.70;45.03;;;7.50;88.90;;;;;;5035214;28;20031;-74
2020/12/18 03:43:23;;;;;;;64.33;47.97;;;7.50;88.80;;;;;;5034919;28;20493;-70
2020/12/18 03:45:48;;;;;;;58.57;44.93;;;7.50;88.90;;;;;;5034840;28;20474;-70
2020/12/18 03:48:14;;;;;;;57.47;45.17;;;7.60;89.00;;;;;;5034776;28;20025;-71
2020/12/18 03:50:40;;;;;;;59.67;45.83;;;7.60;89.00;;;;;;5034812;28;20053;-72
2020/12/18 03:53:05;;;;;;;57.53;45.23;;;7.60;88.90;;;;;;5034563;28;20109;-67
2020/12/18 03:55:31;;;;;;;58.57;45.00;;;7.60;88.80;;;;;;5034392;28;20544;-66
2020/12/18 03:57:57;;;;;;;58.27;44.57;;;7.60;88.70;;;;;;5034791;28;20025;-70
2020/12/18 04:00:22;;;;;;;53.50;39.27;;;7.60;88.60;;;;;;5034731;28;20017;-72
2020/12/18 04:02:48;;;;;;;37.83;28.40;;;7.60;88.40;;;;;;5034598;28;20501;-70
2020/12/18 04:05:14;;;;;;;16.40;14.23;;;7.60;88.20;;;;;;5034419;28;20116;-66
2020/12/18 04:07:40;;;;;;;14.03;9.93;;;7.60;87.50;;;;;;5034357;28;20021;-73
2020/12/18 04:10:06;;;;;;;14.33;6.80;;;7.70;86.80;;;;;;5034451;28;20528;-69
2020/12/18 04:12:32;;;;;;;11.03;6.33;;;7.70;86.10;;;;;;5034518;28;20061;-71
2020/12/18 04:14:57;;;;;;;7.57;5.53;;;7.70;85.30;;;;;;5034133;28;20162;-63
2020/12/18 04:17:23;;;;;;;21.93;14.57;;;7.80;84.80;;;;;;5034047;28;20046;-65
2020/12/18 04:19:49;;;;;;;31.03;23.43;;;7.80;84.40;;;;;;5034147;28;20029;-67
2020/12/18 04:22:14;;;;;;;34.50;26.13;;;7.80;84.50;;;;;;5033989;28;20025;-66
2020/12/18 04:24:40;;;;;;;36.37;27.93;;;7.80;84.80;;;;;;5034195;28;20033;-66
2020/12/18 04:27:06;;;;;;;33.90;26.90;;;7.80;85.40;;;;;;5034134;28;20053;-67
2020/12/18 04:29:31;;;;;;;31.43;23.47;;;7.80;85.60;;;;;;5033993;28;20029;-65
2020/12/18 04:31:57;;;;;;;22.93;17.73;;;7.80;85.70;;;;;;5033776;28;20021;-69
2020/12/18 04:34:23;;;;;;;22.97;17.80;;;7.80;85.80;;;;;;5032719;28;20127;-70
2020/12/18 04:36:49;;;;;;;26.87;17.20;;;7.80;85.80;;;;;;5033758;28;20033;-65
2020/12/18 04:39:14;;;;;;;19.23;14.57;;;7.80;85.70;;;;;;5033800;28;20025;-64
2020/12/18 04:41:40;;;;;;;20.10;16.97;;;7.80;85.70;;;;;;5033957;28;20025;-65
2020/12/18 04:44:06;;;;;;;23.63;18.53;;;7.80;85.60;;;;;;5033895;28;20355;-67
2020/12/18 04:46:35;;;;;;;26.17;18.13;;;7.90;85.60;;;;;;5033547;28;20022;-66
2020/12/18 04:49:01;;;;;;;23.07;18.03;;;7.90;85.60;;;;;;5033541;28;20022;-68
2020/12/18 04:51:27;;;;;;;22.00;18.47;;;7.80;85.60;;;;;;5033925;28;20028;-70
2020/12/18 04:53:55;;;;;;;26.00;18.93;;;7.90;85.60;;;;;;5033484;28;20482;-66
2020/12/18 04:56:22;;;;;;;28.03;22.40;;;7.90;85.60;;;;;;5033512;28;20022;-64
2020/12/18 04:58:56;;;;;;;31.77;24.27;;;7.90;85.50;;;;;;5033254;28;20398;-63
2020/12/18 05:01:23;;;;;;;35.10;26.73;;;7.90;85.60;;;;;;5033856;28;20387;-63
2020/12/18 05:03:50;;;;;;;33.20;26.50;;;7.90;85.70;;;;;;5033796;28;20120;-72
2020/12/18 05:06:17;;;;;;;37.40;27.60;;;7.90;85.80;;;;;;5033559;28;20426;-63
2020/12/18 05:08:43;;;;;;;31.40;25.77;;;7.90;86.00;;;;;;5032210;28;20418;-69
2020/12/18 05:11:36;;;;;;;38.77;28.57;;;7.80;86.00;;;;;;5033250;28;20026;-73
2020/12/18 05:14:02;;;;;;;40.00;29.20;;;7.80;86.20;;;;;;5031084;28;20041;-64
2020/12/18 05:16:28;;;;;;;39.37;31.30;;;7.80;86.30;;;;;;5033111;28;20078;-70
2020/12/18 05:19:05;;;;;;;40.37;29.70;;;7.80;86.50;;;;;;5033110;28;20502;-69
2020/12/18 05:21:31;;;;;;;38.37;29.10;;;7.80;86.60;;;;;;5033413;28;20474;-63
2020/12/18 05:23:57;;;;;;;36.80;27.53;;;7.80;86.70;;;;;;5032893;28;20021;-64
2020/12/18 05:26:28;;;;;;;33.73;24.37;;;7.80;86.80;;;;;;5033272;28;20581;-63
2020/12/18 05:29:06;;;;;;;25.37;19.70;;;7.90;86.80;;;;;;5033397;28;20022;-65
2020/12/18 05:31:33;;;;;;;26.53;17.70;;;7.80;86.60;;;;;;5033333;28;20410;-65
2020/12/18 05:34:04;;;;;;;21.27;14.37;;;7.80;86.30;;;;;;5033057;28;20033;-62
2020/12/18 05:36:31;;;;;;;13.68;11.32;;;7.80;86.00;;;;;;5032828;28;20048;-65
2020/12/18 05:38:57;;;;;;;10.27;8.10;;;7.80;85.60;;;;;;5031826;28;20101;-65
2020/12/18 05:41:25;;;;;;;10.70;7.60;;;7.90;85.10;;;;;;5033278;28;20104;-68
2020/12/18 05:43:51;;;;;;;18.43;11.07;;;7.90;84.50;;;;;;5032958;28;20026;-71
2020/12/18 05:46:24;;;;;;;16.27;12.53;;;7.90;84.20;;;;;;5036474;28;20434;-68
2020/12/18 05:48:55;;;;;;;;;;;7.90;84.20;;;;;;5037406;28;20429;-68
2020/12/18 05:51:35;;;;;;;15.53;10.73;;;7.90;84.10;;;;;;5036874;28;19905;-66
2020/12/18 05:54:19;;;;;;;10.47;7.97;;;7.90;84.20;;;;;;5025841;28;20124;-68
2020/12/18 05:56:50;;;;;;;10.20;6.10;;;7.90;84.00;;;;;;5016705;28;20056;-67
2020/12/18 05:59:18;;;;;;;7.53;5.50;;;7.90;83.70;;;;;;5014758;28;20491;-69
2020/12/18 06:01:46;;;;;;;6.93;5.03;;;8.00;83.20;;;;;;5015050;28;20045;-65
2020/12/18 06:04:14;;;;;;;6.13;5.00;;;8.00;82.50;;;;;;5015814;28;20037;-63
2020/12/18 06:06:43;;;;;;;8.63;5.03;;;8.00;82.20;;;;;;5014695;28;20471;-60
2020/12/18 06:09:10;;;;;;;6.57;4.60;;;8.00;82.00;;;;;;5016887;28;20033;-61
2020/12/18 06:11:37;;;;;;;6.53;4.77;;;8.00;82.10;;;;;;5016956;28;20026;-61
2020/12/18 06:14:04;;;;;;;7.37;4.70;;;8.00;81.90;;;;;;5016622;28;20030;-62
2020/12/18 06:16:30;;;;;;;8.93;5.10;;;8.10;81.70;;;;;;5016514;28;20034;-74
2020/12/18 06:19:04;;;;;;;6.63;5.20;;;8.10;81.50;;;;;;5016654;28;20056;-74
2020/12/18 06:21:30;;;;;;;8.60;5.07;;;8.10;81.20;;;;;;5016959;28;20399;-74
2020/12/18 06:23:56;;;;;;;9.63;5.57;;;8.10;81.10;;;;;;5016763;28;20120;-73
2020/12/18 06:26:23;;;;;;;6.80;5.00;;;8.10;80.80;;;;;;5016049;28;20101;-74
2020/12/18 06:28:49;;;;;;;12.43;5.23;;;8.10;81.00;;;;;;5015693;28;20024;-73
2020/12/18 06:31:25;;;;;;;8.97;5.13;;;8.10;81.00;;;;;;5016095;28;20030;-74
2020/12/18 06:33:54;;;;;;;6.43;4.73;;;8.10;80.90;;;;;;5016180;28;20033;-74
2020/12/18 06:36:45;;;;;;;13.60;8.03;;;8.10;80.70;;;;;;5016237;28;20029;-74
2020/12/18 06:39:24;;;;;;;30.67;19.90;;;8.20;80.70;;;;;;5016208;28;20026;-73
2020/12/18 06:42:16;;;;;;;21.47;16.73;;;8.10;81.70;;;;;;5016073;28;20096;-72
2020/12/18 06:44:43;;;;;;;25.93;19.03;;;8.10;82.20;;;;;;5016011;28;20029;-73
2020/12/18 06:47:18;;;;;;;22.97;17.43;;;8.10;82.60;;;;;;5016028;28;20064;-74
2020/12/18 06:49:56;;;;;;;28.13;20.67;;;8.10;83.00;;;;;;5015927;28;20018;-74
2020/12/18 06:52:47;;;;;;;25.30;19.33;;;8.00;83.20;;;;;;5016114;28;20026;-73
2020/12/18 06:55:34;;;;;;;14.20;11.07;;;8.00;83.50;;;;;;5015800;28;20048;-74
2020/12/18 06:58:24;;;;;;;11.90;7.53;;;8.00;83.50;;;;;;5015043;28;20034;-74
2020/12/18 07:00:59;;;;;;;11.03;8.00;;;8.00;83.00;;;;;;5016064;28;20037;-74
2020/12/18 07:03:31;;;;;;;15.40;9.97;;;8.00;82.70;;;;;;5015671;28;20074;-74
2020/12/18 07:06:04;;;;;;;12.47;9.50;;;8.00;82.60;;;;;;5014510;28;20034;-74
2020/12/18 07:08:34;;;;;;;15.35;11.73;;;8.00;82.70;;;;;;5012906;28;20030;-73
2020/12/18 07:11:03;;;;;;;21.20;14.33;;;8.00;82.90;;;;;;5012953;28;20030;-76
2020/12/18 07:13:30;;;;;;;24.03;18.20;;;8.00;83.00;;;;;;5013026;28;20033;-77
2020/12/18 07:16:03;;;;;;;23.73;18.73;;;8.00;83.10;;;;;;5015114;28;20371;-75
2020/12/18 07:18:29;;;;;;;;;;;8.00;83.20;;;;;;5015714;28;20537;-75
2020/12/18 07:20:57;;;;;;;23.40;18.60;;;8.00;83.30;;;;;;5015343;28;19905;-76
2020/12/18 07:23:26;;;;;;;32.10;19.90;;;8.00;83.40;;;;;;5015500;28;20037;-71
2020/12/18 07:25:51;;;;;;;28.43;20.70;;;8.00;83.50;;;;;;5014623;28;20042;-74
2020/12/18 07:28:18;;;;;;;28.67;21.73;;;8.10;83.70;;;;;;5012442;28;20455;-73
2020/12/18 07:30:47;;;;;;;32.63;23.47;;;8.00;83.80;;;;;;5011123;28;20823;-73
2020/12/18 07:33:13;;;;;;;30.87;24.33;;;8.00;83.90;;;;;;5015158;28;20033;-73
2020/12/18 07:35:41;;;;;;;35.70;26.47;;;8.10;84.10;;;;;;5015187;28;20038;-74
2020/12/18 07:38:20;;;;;;;34.63;25.87;;;8.10;84.30;;;;;;5015261;28;20459;-75
2020/12/18 07:40:49;;;;;;;33.57;26.13;;;8.10;84.30;;;;;;5015139;28;20371;-67
2020/12/18 07:43:16;;;;;;;33.97;25.80;;;8.10;84.30;;;;;;5015006;28;20025;-74
2020/12/18 07:45:47;;;;;;;34.40;26.60;;;8.10;84.30;;;;;;5013656;28;20030;-70
2020/12/18 07:48:27;;;;;;;36.87;27.03;;;8.10;84.50;;;;;;5014691;28;20144;-68
2020/12/18 07:51:01;;;;;;;31.03;24.20;;;8.10;84.50;;;;;;5015040;28;20490;-65
2020/12/18 07:53:32;;;;;;;29.90;23.00;;;8.10;84.40;;;;;;5014746;28;20026;-74
2020/12/18 07:56:07;;;;;;;30.70;22.47;;;8.10;84.40;;;;;;5013564;28;20026;-72
2020/12/18 07:58:52;;;;;;;29.17;21.43;;;8.20;84.50;;;;;;5014900;28;20040;-67
2020/12/18 08:01:26;;;;;;;24.17;18.33;;;8.20;84.40;;;;;;5014706;28;20034;-73
2020/12/18 08:03:57;;;;;;;21.63;17.60;;;8.20;84.20;;;;;;5014866;28;20038;-62
2020/12/18 08:06:30;;;;;;;18.73;11.97;;;8.20;84.30;;;;;;5014659;28;20459;-67
2020/12/18 08:09:00;;;;;;;20.97;12.60;;;8.30;84.30;;;;;;5014315;28;20348;-64
2020/12/18 08:11:28;;;;;;;19.87;14.60;;;8.30;83.90;;;;;;5014465;28;20055;-72
2020/12/18 08:13:57;;;;;;;18.17;14.63;;;8.20;83.60;;;;;;5014578;28;20026;-72
2020/12/18 08:16:31;;;;;;;25.70;17.33;;;8.30;83.50;;;;;;5014373;28;20490;-71
2020/12/18 08:19:01;;;;;;;20.53;14.97;;;8.30;83.80;;;;;;5014313;28;20100;-70
2020/12/18 08:21:27;;;;;;;18.90;13.97;;;8.30;83.60;;;;;;5014246;28;20029;-68
2020/12/18 08:24:21;;;;;;;37.93;25.20;;;8.40;83.60;;;;;;5014480;28;20068;-72
2020/12/18 08:27:09;;;;;;;36.20;23.07;;;8.40;83.60;;;;;;5014268;28;20018;-73
2020/12/18 08:29:39;;;;;;;31.10;21.77;;;8.40;83.90;;;;;;5013021;28;20042;-74
2020/12/18 08:32:07;;;;;;;25.27;13.30;;;8.40;83.90;;;;;;5014159;28;20402;-72
2020/12/18 08:34:35;;;;;;;10.70;7.43;;;8.40;83.90;;;;;;5014258;28;20096;-71
2020/12/18 08:37:02;;;;;;;9.63;6.67;;;8.40;83.20;;;;;;5014236;28;20025;-71
2020/12/18 08:39:30;;;;;;;12.93;6.90;;;8.50;82.70;;;;;;5014026;28;20498;-71
2020/12/18 08:41:56;;;;;;;13.60;6.20;;;8.50;82.20;;;;;;5014215;28;20045;-77
2020/12/18 08:44:28;;;;;;;14.27;6.10;;;8.50;81.20;;;;;;5014107;28;20037;-72
2020/12/18 08:46:56;;;;;;;12.15;6.10;;;8.60;81.10;;;;;;5014226;28;20038;-69
2020/12/18 08:49:27;;;;;;;14.07;5.80;;;8.60;80.90;;;;;;5014285;28;20475;-70
2020/12/18 08:52:03;;;;;;;21.83;6.80;;;8.60;80.70;;;;;;5013932;28;20081;-70
2020/12/18 08:54:34;;;;;;;13.10;6.37;;;8.60;80.60;;;;;;5013234;28;20101;-69
2020/12/18 08:57:26;;;;;;;13.50;6.30;;;8.70;80.60;;;;;;5013173;28;20029;-70
2020/12/18 08:59:57;;;;;;;12.00;6.20;;;8.70;80.40;;;;;;5010230;28;20029;-72
2020/12/18 09:02:24;;;;;;;12.10;6.07;;;8.70;80.20;;;;;;5009452;28;20124;-69
2020/12/18 09:05:09;;;;;;;9.43;6.20;;;8.70;80.20;;;;;;5013306;28;20026;-70
2020/12/18 09:07:46;;;;;;;11.67;6.37;;;8.70;80.20;;;;;;5013792;28;20391;-68
2020/12/18 09:10:12;;;;;;;8.33;6.10;;;8.70;80.10;;;;;;5013761;28;20022;-71
2020/12/18 09:12:42;;;;;;;7.80;6.27;;;8.80;80.30;;;;;;5013739;28;20105;-71
2020/12/18 09:15:26;;;;;;;10.53;6.30;;;8.80;80.00;;;;;;5013224;28;20041;-71
2020/12/18 09:18:07;;;;;;;8.97;5.70;;;8.80;80.60;;;;;;5013320;28;20053;-70
2020/12/18 09:20:35;;;;;;;7.80;6.13;;;8.80;79.60;;;;;;5012920;28;20030;-70
2020/12/18 09:23:16;;;;;;;10.60;5.70;;;8.90;79.60;;;;;;5012446;28;20033;-71
2020/12/18 09:25:50;;;;;;;9.13;4.90;;;8.80;79.30;;;;;;5010617;28;20037;-69
2020/12/18 09:28:18;;;;;;;9.73;5.67;;;8.90;79.10;;;;;;5010427;28;20133;-69
2020/12/18 09:30:58;;;;;;;9.73;5.47;;;8.90;79.30;;;;;;5012597;28;20029;-70
2020/12/18 09:33:25;;;;;;;9.17;6.00;;;8.90;79.30;;;;;;5013445;28;20072;-70
2020/12/18 09:36:00;;;;;;;8.60;5.93;;;8.90;79.20;;;;;;5013143;28;20038;-70
2020/12/18 09:38:33;;;;;;;9.60;5.30;;;8.90;79.00;;;;;;5013280;28;20026;-70
2020/12/18 09:41:02;;;;;;;11.85;5.32;;;9.00;79.00;;;;;;5013317;28;20560;-70
2020/12/18 09:43:28;;;;;;;9.77;5.20;;;9.00;79.00;;;;;;5013134;28;20368;-69
2020/12/18 09:45:55;;;;;;;10.47;5.57;;;9.00;78.80;;;;;;5013008;28;20057;-69
2020/12/18 09:48:22;;;;;;;7.33;5.47;;;9.10;78.50;;;;;;5013087;28;20430;-70
2020/12/18 09:50:50;;;;;;;6.93;5.70;;;9.10;78.30;;;;;;5012911;28;20100;-71
2020/12/18 09:53:16;;;;;;;8.47;5.60;;;9.10;78.40;;;;;;5013070;28;20025;-70
2020/12/18 09:55:42;;;;;;;9.80;5.40;;;9.10;78.30;;;;;;5012968;28;20030;-70
2020/12/18 09:58:08;;;;;;;7.73;5.80;;;9.10;78.20;;;;;;5013149;28;20029;-71
2020/12/18 10:00:34;;;;;;;8.43;5.40;;;9.10;78.20;;;;;;5012702;28;20026;-71
2020/12/18 10:03:00;;;;;;;8.93;5.93;;;9.20;78.30;;;;;;5012980;28;20026;-70
2020/12/18 10:05:27;;;;;;;7.90;5.20;;;9.20;78.20;;;;;;5012953;28;20027;-70
2020/12/18 10:07:53;;;;;;;10.83;5.63;;;9.30;78.30;;;;;;5012652;28;20041;-71
2020/12/18 10:10:20;;;;;;;7.40;5.20;;;9.30;78.20;;;;;;5013193;28;20033;-70
2020/12/18 10:12:46;;;;;;;8.27;5.77;;;9.30;78.20;;;;;;5012948;28;20038;-70
2020/12/18 10:15:12;;;;;;;7.97;5.60;;;9.30;78.30;;;;;;5012747;28;20048;-71
2020/12/18 10:17:37;;;;;;;9.80;5.67;;;9.40;78.40;;;;;;5012879;28;20125;-70
2020/12/18 10:20:05;;;;;;;9.60;5.60;;;9.40;78.00;;;;;;5012897;28;20030;-70
2020/12/18 10:22:30;;;;;;;7.23;5.40;;;9.40;78.10;;;;;;5012785;28;20022;-69
2020/12/18 10:24:56;;;;;;;9.50;6.27;;;9.40;78.20;;;;;;5012996;28;20435;-69
2020/12/18 10:27:25;;;;;;;10.50;5.90;;;9.50;78.00;;;;;;5012894;28;20018;-70
2020/12/18 10:29:54;;;;;;;7.97;5.93;;;9.50;77.90;;;;;;5012849;28;20022;-71
2020/12/18 10:32:21;;;;;;;14.70;7.77;;;9.60;78.00;;;;;;5015404;28;20026;-70
2020/12/18 10:34:56;;;;;;;9.93;6.60;;;9.60;77.50;;;;;;5015537;28;20044;-70
2020/12/18 10:37:22;;;;;;;11.53;5.80;;;9.60;77.30;;;;;;5016021;28;20029;-71
2020/12/18 10:39:52;;;;;;;25.77;6.47;;;9.60;77.20;;;;;;5014689;28;20029;-70
2020/12/18 10:42:18;;;;;;;21.33;11.17;;;9.70;77.10;;;;;;5016221;28;20414;-70
2020/12/18 10:44:47;;;;;;;42.57;26.13;;;9.70;77.20;;;;;;5016126;28;20410;-70
2020/12/18 10:47:13;;;;;;;40.63;28.17;;;9.70;81.50;;;;;;5014662;28;20390;-71
2020/12/18 10:49:39;;;;;;;35.63;25.40;;;9.60;80.70;;;;;;5015923;28;20128;-71
2020/12/18 10:52:05;;;;;;;32.17;23.97;;;9.70;81.20;;;;;;5015893;28;20093;-72
2020/12/18 10:54:32;;;;;;;28.40;22.90;;;9.70;81.70;;;;;;5015677;28;20038;-70
2020/12/18 10:56:58;;;;;;;30.43;23.60;;;9.70;81.50;;;;;;5015784;28;20022;-71
2020/12/18 10:59:31;;;;;;;33.37;23.70;;;9.80;81.60;;;;;;5015399;28;20025;-68
2020/12/18 11:01:59;;;;;;;30.30;22.73;;;9.80;81.70;;;;;;5015322;28;20088;-70
2020/12/18 11:04:27;;;;;;;31.70;21.63;;;9.80;81.70;;;;;;5015823;28;20033;-68
2020/12/18 11:06:53;;;;;;;29.80;22.77;;;9.90;81.60;;;;;;5015760;28;20065;-72
2020/12/18 11:09:20;;;;;;;31.97;23.93;;;9.90;81.40;;;;;;5015509;28;20383;-70
2020/12/18 11:11:50;;;;;;;28.40;22.97;;;9.90;81.60;;;;;;5015343;28;20038;-67
2020/12/18 11:14:15;;;;;;;29.27;22.07;;;9.90;81.80;;;;;;5015885;28;20431;-70
2020/12/18 11:16:41;;;;;;;19.40;14.27;;;10.00;82.10;;;;;;5015407;28;20040;-68
2020/12/18 11:19:07;;;;;;;12.87;9.77;;;10.00;81.70;;;;;;5015188;28;20053;-69
2020/12/18 11:21:33;;;;;;;11.18;7.05;;;10.00;80.50;;;;;;5014954;28;20071;-69
2020/12/18 11:23:59;;;;;;;9.90;7.03;;;10.00;79.70;;;;;;5014915;28;20026;-69
2020/12/18 11:26:25;;;;;;;9.33;6.20;;;10.10;79.30;;;;;;5014636;28;20034;-69
2020/12/18 11:28:52;;;;;;;12.57;6.45;;;10.10;78.60;;;;;;5015159;28;20032;-70
2020/12/18 11:31:18;;;;;;;12.97;6.70;;;10.10;78.10;;;;;;5014865;28;20030;-65
2020/12/18 11:33:44;;;;;;;10.60;6.47;;;10.10;78.40;;;;;;5015158;28;20545;-66
2020/12/18 11:36:10;;;;;;;10.82;6.05;;;10.10;78.10;;;;;;5014974;28;20036;-71
2020/12/18 11:38:35;;;;;;;8.00;5.57;;;10.20;78.10;;;;;;5012802;28;20026;-66
2020/12/18 11:41:01;;;;;;;7.90;6.00;;;10.20;77.90;;;;;;5014912;28;20029;-65
2020/12/18 11:43:27;;;;;;;10.32;5.80;;;10.20;77.80;;;;;;5014382;28;20106;-63
2020/12/18 11:45:53;;;;;;;8.50;5.67;;;10.20;77.60;;;;;;5014772;28;20053;-64
2020/12/18 11:48:18;;;;;;;6.70;5.63;;;10.20;77.30;;;;;;5014860;28;20397;-62
2020/12/18 11:50:46;;;;;;;10.27;6.22;;;10.20;77.30;;;;;;5014884;28;20034;-65
2020/12/18 11:53:12;;;;;;;11.30;7.87;;;10.20;77.30;;;;;;5014653;28;20029;-68
2020/12/18 11:55:38;;;;;;;10.47;6.90;;;10.30;77.50;;;;;;5014781;28;20049;-70
2020/12/18 11:58:04;;;;;;;14.10;7.27;;;10.30;77.40;;;;;;5014859;28;20077;-70
2020/12/18 12:00:30;;;;;;;10.97;7.17;;;10.30;77.30;;;;;;5014584;28;20088;-71
2020/12/18 12:02:56;;;;;;;10.30;6.82;;;10.30;77.10;;;;;;5014939;28;20419;-71
2020/12/18 12:05:23;;;;;;;14.20;6.90;;;10.30;77.30;;;;;;5014621;28;20471;-70
2020/12/18 12:07:49;;;;;;;9.50;7.35;;;10.30;77.40;;;;;;5014374;28;20030;-71
2020/12/18 12:10:16;;;;;;;11.10;7.35;;;10.40;77.40;;;;;;5014659;28;20033;-72
2020/12/18 12:12:43;;;;;;;16.95;7.65;;;10.40;77.20;;;;;;5014651;28;20080;-71
2020/12/18 12:15:09;;;;;;;13.83;7.40;;;10.50;76.90;;;;;;5014118;28;20045;-72
2020/12/18 12:17:35;;;;;;;18.30;8.05;;;10.60;76.80;;;;;;5014132;28;20407;-71
2020/12/18 12:20:01;;;;;;;18.08;8.32;;;10.70;76.40;;;;;;5014228;28;20084;-72
2020/12/18 12:22:27;;;;;;;9.68;7.05;;;10.70;76.50;;;;;;5014236;28;20033;-71
2020/12/18 12:24:55;;;;;;;10.45;7.28;;;10.80;76.70;;;;;;5013777;28;20033;-70
2020/12/18 12:27:23;;;;;;;11.80;7.13;;;10.80;76.30;;;;;;5014580;28;20057;-72
2020/12/18 12:29:49;;;;;;;9.85;7.05;;;10.90;76.10;;;;;;5014354;28;20022;-71
2020/12/18 12:32:14;;;;;;;10.05;6.60;;;10.90;75.90;;;;;;5014364;28;20026;-71
2020/12/18 12:34:41;;;;;;;17.77;7.85;;;10.90;75.80;;;;;;5014009;28;20475;-72
2020/12/18 12:37:07;;;;;;;16.67;7.88;;;10.90;76.00;;;;;;5013826;28;20034;-71
2020/12/18 12:39:33;;;;;;;15.10;7.75;;;10.90;76.00;;;;;;5014281;28;20030;-71
2020/12/18 12:42:04;;;;;;;17.48;8.85;;;10.90;75.80;;;;;;5013050;28;20030;-72
2020/12/18 12:44:30;;;;;;;12.38;9.25;;;10.90;75.70;;;;;;5011275;28;20026;-71
2020/12/18 12:46:56;;;;;;;15.90;9.27;;;10.90;75.90;;;;;;5011212;28;20022;-69
2020/12/18 12:49:23;;;;;;;13.10;8.65;;;11.00;76.10;;;;;;5012900;28;20029;-71